createdAt,value
2022-08-01T00:00:10.981Z,100.00
2022-08-01T00:03:20.626Z,100.00
2022-08-01T00:06:32.024Z,100.00
2022-08-01T00:09:32.462Z,100.00
2022-08-01T00:12:45.072Z,100.00
2022-08-01T00:15:53.678Z,100.00
2022-08-01T00:19:13.071Z,100.00
2022-08-01T00:22:26.294Z,100.00
2022-08-01T00:25:47.859Z,100.00
2022-08-01T00:28:48.817Z,100.00
2022-08-01T00:32:00.858Z,100.00
2022-08-01T00:35:06.996Z,100.00
2022-08-01T00:38:14.112Z,100.00
2022-08-01T00:41:17.026Z,100.00
2022-08-01T00:44:18.370Z,100.00
2022-08-01T00:47:21.143Z,100.00
2022-08-01T00:50:34.043Z,100.00
2022-08-01T00:53:51.286Z,100.00
2022-08-01T00:57:02.112Z,100.00
2022-08-01T01:00:05.850Z,100.00
2022-08-01T01:03:16.348Z,100.00
2022-08-01T01:06:29.132Z,100.00
2022-08-01T01:09:57.022Z,100.00
2022-08-01T01:13:18.535Z,100.00
2022-08-01T01:16:35.696Z,100.00
2022-08-01T01:20:02.047Z,100.00
2022-08-01T01:23:33.148Z,100.00
2022-08-01T01:26:38.959Z,100.00
2022-08-01T01:30:00.007Z,100.00
2022-08-01T01:33:12.156Z,100.00
2022-08-01T01:36:17.518Z,100.00
2022-08-01T01:39:32.235Z,100.00
2022-08-01T01:42:38.217Z,100.00
2022-08-01T01:45:49.931Z,100.00
2022-08-01T01:48:55.902Z,100.00
2022-08-01T01:52:08.512Z,100.00
2022-08-01T01:55:15.253Z,100.00
2022-08-01T01:58:23.977Z,100.00
2022-08-01T02:01:57.999Z,100.00
2022-08-01T02:05:01.807Z,100.00
2022-08-01T02:08:11.064Z,100.00
2022-08-01T02:11:21.901Z,100.00
2022-08-01T02:14:30.024Z,100.00
2022-08-01T02:17:47.579Z,100.00
2022-08-01T02:20:59.115Z,100.00
2022-08-01T02:24:09.801Z,100.00
2022-08-01T02:27:27.872Z,100.00
2022-08-01T02:30:35.291Z,100.00
2022-08-01T02:33:50.975Z,100.00
2022-08-01T02:36:55.036Z,100.00
2022-08-01T02:40:10.213Z,100.00
2022-08-01T02:43:28.236Z,100.00
2022-08-01T02:46:41.428Z,100.00
2022-08-01T02:49:54.132Z,100.00
2022-08-01T02:53:02.541Z,100.00
2022-08-01T02:56:11.220Z,100.00
2022-08-01T02:59:15.943Z,100.00
2022-08-01T03:02:31.599Z,100.00
2022-08-01T03:05:36.535Z,100.00
2022-08-01T03:08:51.774Z,100.00
2022-08-01T03:11:56.838Z,100.00
2022-08-01T03:15:10.374Z,100.00
2022-08-01T03:18:22.548Z,100.00
2022-08-01T03:21:30.957Z,100.00
2022-08-01T03:24:40.448Z,100.00
2022-08-01T03:27:44.348Z,100.00
2022-08-01T03:31:07.136Z,100.00
2022-08-01T03:34:10.669Z,100.00
2022-08-01T03:37:29.784Z,100.00
2022-08-01T03:40:44.546Z,100.00
2022-08-01T03:43:49.171Z,100.00
2022-08-01T03:46:51.596Z,100.00
2022-08-01T03:50:01.499Z,100.00
2022-08-01T03:53:07.064Z,100.00
2022-08-01T03:56:25.023Z,100.00
2022-08-01T03:59:27.609Z,100.00
2022-08-01T04:02:45.206Z,100.00
2022-08-01T04:05:49.393Z,100.00
2022-08-01T04:09:10.161Z,100.00
2022-08-01T04:12:29.401Z,100.00
2022-08-01T04:15:32.836Z,100.00
2022-08-01T04:25:50.390Z,100.00
2022-08-01T04:29:11.951Z,100.00
2022-08-01T04:32:27.166Z,100.00
2022-08-01T04:36:01.942Z,100.00
2022-08-01T04:39:19.374Z,100.00
2022-08-01T04:43:00.891Z,100.00
2022-08-01T04:49:50.871Z,100.00
2022-08-01T04:52:59.319Z,100.00
2022-08-01T04:56:19.628Z,100.00
2022-08-01T04:59:47.331Z,100.00
2022-08-01T05:02:48.487Z,100.00
2022-08-01T05:06:02.063Z,100.00
2022-08-01T05:09:03.999Z,100.00
2022-08-01T05:12:11.096Z,100.00
2022-08-01T05:15:25.676Z,100.00
2022-08-01T05:18:28.838Z,100.00
2022-08-01T05:21:39.285Z,100.00
2022-08-01T05:24:42.041Z,100.00
2022-08-01T05:28:19.092Z,100.00
2022-08-01T05:31:52.520Z,100.00
2022-08-01T05:35:03.807Z,100.00
2022-08-01T05:38:26.247Z,100.00
2022-08-01T05:41:52.086Z,100.00
2022-08-01T05:46:02.752Z,100.00
2022-08-01T05:50:20.631Z,100.00
2022-08-01T05:53:26.307Z,100.00
2022-08-01T05:56:34.344Z,100.00
2022-08-01T05:59:39.101Z,100.00
2022-08-01T06:02:52.391Z,100.00
2022-08-01T06:18:45.214Z,100.00
2022-08-01T06:21:49.878Z,100.00
2022-08-01T06:25:41.586Z,100.00
2022-08-01T06:41:25.066Z,100.00
2022-08-01T06:44:28.227Z,100.00
2022-08-01T06:47:40.609Z,100.00
2022-08-01T06:56:07.872Z,100.00
2022-08-01T07:08:36.393Z,92.25
2022-08-01T07:11:53.432Z,92.48
2022-08-01T07:15:31.986Z,95.07
2022-08-01T07:24:28.921Z,97.67
2022-08-01T07:36:35.718Z,95.83
2022-08-01T07:56:55.212Z,92.55
2022-08-01T08:01:17.322Z,92.92
2022-08-01T08:33:43.206Z,89.40
2022-08-01T08:37:39.240Z,86.97
2022-08-01T08:49:56.066Z,85.15
2022-08-01T08:57:48.137Z,60.17
2022-08-01T09:00:53.957Z,57.72
2022-08-01T09:04:02.580Z,55.77
2022-08-01T09:07:08.012Z,50.50
2022-08-01T09:10:22.063Z,55.47
2022-08-01T09:13:23.149Z,57.10
2022-08-01T09:16:32.628Z,58.13
2022-08-01T09:24:01.755Z,49.34
2022-08-01T09:27:06.830Z,46.41
2022-08-01T09:30:57.334Z,43.38
2022-08-01T09:34:15.555Z,48.62
2022-08-01T09:37:24.242Z,42.32
2022-08-01T09:40:35.158Z,41.32
2022-08-01T09:43:37.707Z,38.86
2022-08-01T09:47:16.145Z,39.60
2022-08-01T09:50:24.456Z,39.35
2022-08-01T09:53:32.856Z,38.75
2022-08-01T09:56:49.589Z,38.49
2022-08-01T10:00:04.929Z,39.18
2022-08-01T10:03:33.940Z,38.63
2022-08-01T10:06:37.261Z,36.68
2022-08-01T10:09:57.524Z,37.94
2022-08-01T10:13:06.903Z,37.91
2022-08-01T10:17:04.971Z,37.78
2022-08-01T10:20:29.890Z,39.06
2022-08-01T10:23:52.719Z,38.78
2022-08-01T10:27:24.240Z,39.04
2022-08-01T10:30:41.005Z,39.25
2022-08-01T10:33:59.879Z,39.04
2022-08-01T10:37:10.065Z,39.52
2022-08-01T10:40:29.856Z,38.25
2022-08-01T10:43:46.921Z,38.56
2022-08-01T10:47:04.513Z,37.56
2022-08-01T10:50:26.966Z,38.22
2022-08-01T11:16:05.735Z,39.89
2022-08-01T11:36:58.996Z,45.15
2022-08-01T12:01:58.001Z,47.35
2022-08-01T12:05:43.066Z,47.15
2022-08-01T12:09:00.187Z,47.58
2022-08-01T12:12:48.437Z,45.50
2022-08-01T12:16:29.039Z,45.84
2022-08-01T12:20:03.322Z,45.73
2022-08-01T12:23:28.456Z,46.19
2022-08-01T12:38:34.998Z,46.44
2022-08-01T12:41:46.567Z,46.29
2022-08-01T12:45:33.914Z,45.61
2022-08-01T12:48:43.766Z,45.43
2022-08-01T12:51:57.504Z,44.37
2022-08-01T12:55:33.963Z,44.54
2022-08-01T14:01:55.183Z,45.18
2022-08-01T14:05:50.275Z,45.57
2022-08-01T14:10:19.849Z,45.85
2022-08-01T14:27:05.294Z,47.56
2022-08-01T14:30:52.631Z,47.93
2022-08-01T14:34:34.242Z,48.24
2022-08-01T14:37:57.788Z,47.97
2022-08-01T14:44:33.356Z,48.86
2022-08-01T14:48:27.481Z,48.75
2022-08-01T14:52:02.805Z,50.83
2022-08-01T14:55:11.594Z,51.26
2022-08-01T14:58:22.400Z,52.37
2022-08-01T15:01:59.646Z,51.85
2022-08-01T15:05:19.135Z,51.97
2022-08-01T15:08:55.974Z,53.02
2022-08-01T15:12:16.381Z,50.94
2022-08-01T15:15:29.462Z,51.76
2022-08-01T15:18:50.594Z,50.72
2022-08-01T15:30:53.633Z,52.29
2022-08-01T15:34:43.011Z,52.43
2022-08-01T15:37:52.629Z,52.46
2022-08-01T15:52:23.122Z,53.05
2022-08-01T16:04:31.146Z,53.85
2022-08-01T16:08:21.056Z,53.75
2022-08-01T16:24:22.100Z,54.67
2022-08-01T16:27:35.061Z,55.72
2022-08-01T16:30:48.684Z,56.42
2022-08-01T16:34:16.046Z,57.33
2022-08-01T16:37:18.574Z,57.66
2022-08-01T16:40:34.915Z,57.83
2022-08-01T16:43:55.928Z,57.55
2022-08-01T16:47:10.929Z,56.70
2022-08-01T16:50:28.649Z,56.36
2022-08-01T16:53:46.605Z,56.72
2022-08-01T16:56:52.049Z,57.48
2022-08-01T17:00:21.376Z,58.01
2022-08-01T17:03:51.332Z,58.36
2022-08-01T17:06:54.141Z,57.82
2022-08-01T17:10:04.810Z,57.36
2022-08-01T17:13:33.208Z,57.61
2022-08-01T17:20:22.702Z,58.23
2022-08-01T17:27:07.178Z,58.17
2022-08-01T17:30:15.310Z,58.53
2022-08-01T17:33:44.523Z,59.26
2022-08-01T17:36:51.110Z,59.40
2022-08-01T17:40:03.370Z,59.40
2022-08-01T17:43:06.272Z,59.52
2022-08-01T17:46:18.381Z,59.86
2022-08-01T17:49:52.248Z,60.18
2022-08-01T17:52:54.369Z,60.30
2022-08-01T17:55:57.775Z,60.53
2022-08-01T17:59:05.205Z,60.39
2022-08-01T18:02:06.311Z,60.44
2022-08-01T18:05:19.205Z,61.59
2022-08-01T18:08:27.258Z,61.85
2022-08-01T18:11:37.369Z,62.57
2022-08-01T18:14:40.724Z,62.94
2022-08-01T18:17:52.074Z,62.56
2022-08-01T18:20:55.409Z,63.34
2022-08-01T18:24:30.332Z,64.13
2022-08-01T18:28:30.723Z,64.76
2022-08-01T18:31:01.610Z,65.30
2022-08-01T18:34:04.686Z,65.61
2022-08-01T18:37:14.887Z,66.25
2022-08-01T18:40:22.369Z,67.20
2022-08-01T18:43:42.014Z,67.39
2022-08-01T18:46:44.943Z,68.17
2022-08-01T18:49:52.665Z,68.12
2022-08-01T18:52:57.477Z,69.18
2022-08-01T18:56:04.413Z,69.86
2022-08-01T18:59:08.271Z,69.98
2022-08-01T19:02:16.460Z,70.41
2022-08-01T19:05:16.820Z,71.07
2022-08-01T19:08:34.287Z,70.92
2022-08-01T19:11:36.350Z,72.19
2022-08-01T19:14:44.325Z,72.60
2022-08-01T19:17:45.600Z,73.05
2022-08-01T19:20:59.105Z,73.11
2022-08-01T19:24:23.612Z,73.67
2022-08-01T19:27:52.050Z,74.36
2022-08-01T19:30:55.494Z,74.66
2022-08-01T19:34:03.936Z,74.87
2022-08-01T19:37:08.086Z,74.35
2022-08-01T19:40:27.209Z,74.74
2022-08-01T19:43:39.032Z,75.43
2022-08-01T19:46:55.060Z,76.10
2022-08-01T19:50:01.389Z,77.05
2022-08-01T19:53:11.331Z,77.09
2022-08-01T19:56:16.920Z,77.57
2022-08-01T19:59:34.361Z,78.27
2022-08-01T20:02:42.108Z,78.00
2022-08-01T20:06:09.323Z,77.64
2022-08-01T20:09:13.276Z,78.54
2022-08-01T20:12:31.277Z,78.54
2022-08-01T20:19:09.570Z,79.51
2022-08-01T20:22:25.260Z,79.94
2022-08-01T20:32:50.215Z,80.64
2022-08-01T20:35:52.281Z,81.23
2022-08-01T20:39:08.818Z,81.71
2022-08-01T20:42:21.927Z,82.00
2022-08-01T20:45:51.168Z,82.69
2022-08-01T20:49:16.983Z,83.06
2022-08-01T20:52:27.466Z,83.68
2022-08-01T20:55:27.801Z,83.03
2022-08-01T20:58:48.366Z,84.14
2022-08-01T21:01:57.577Z,84.71
2022-08-01T21:05:09.442Z,84.55
2022-08-01T21:08:12.285Z,84.43
2022-08-01T21:11:24.497Z,84.70
2022-08-01T21:19:29.071Z,85.85
2022-08-01T21:22:55.922Z,85.64
2022-08-01T21:26:05.562Z,86.05
2022-08-01T21:29:21.619Z,86.48
2022-08-01T21:32:32.697Z,86.46
2022-08-01T21:35:35.325Z,86.51
2022-08-01T21:38:47.191Z,86.94
2022-08-01T21:45:21.312Z,88.18
2022-08-01T21:48:26.949Z,88.32
2022-08-01T21:51:57.376Z,88.61
2022-08-01T21:55:10.707Z,88.90
2022-08-01T21:58:33.579Z,89.73
2022-08-01T22:01:52.720Z,89.62
2022-08-01T22:05:07.941Z,90.09
2022-08-01T22:08:31.472Z,90.46
2022-08-01T22:12:01.331Z,90.98
2022-08-01T22:15:07.077Z,91.08
2022-08-01T22:18:19.454Z,91.68
2022-08-01T22:21:28.337Z,92.09
2022-08-01T22:24:36.208Z,92.11
2022-08-01T22:28:03.279Z,92.50
2022-08-01T22:31:09.084Z,92.60
2022-08-01T22:34:16.618Z,93.33
2022-08-01T22:37:57.387Z,93.44
2022-08-01T22:41:03.255Z,93.48
2022-08-01T22:44:13.318Z,94.00
2022-08-01T22:47:32.206Z,94.21
2022-08-01T22:50:43.038Z,95.13
2022-08-01T22:53:50.824Z,95.54
2022-08-01T22:57:07.139Z,96.29
2022-08-01T23:00:21.834Z,96.03
2022-08-01T23:03:36.282Z,96.88
2022-08-01T23:06:46.851Z,97.12
2022-08-01T23:09:55.405Z,98.00
2022-08-01T23:12:58.850Z,98.85
2022-08-01T23:16:28.182Z,99.64
2022-08-01T23:19:29.845Z,99.83
2022-08-01T23:22:41.236Z,100.00
2022-08-01T23:25:44.245Z,99.55
2022-08-01T23:28:56.335Z,99.93
2022-08-01T23:32:03.112Z,100.00
2022-08-01T23:35:12.136Z,100.00
2022-08-01T23:38:14.236Z,100.00
2022-08-01T23:41:27.055Z,100.00
2022-08-01T23:44:30.426Z,100.00
2022-08-01T23:47:36.081Z,100.00
2022-08-01T23:50:36.538Z,100.00
2022-08-01T23:53:46.042Z,100.00
2022-08-01T23:56:54.500Z,100.00
